createdAt,value
2018-11-02T00:01:08.336Z,32.50
2018-11-02T00:03:35.245Z,31.90
2018-11-02T00:06:02.192Z,34.40
2018-11-02T00:08:29.064Z,34.83
2018-11-02T00:10:55.961Z,35.30
2018-11-02T00:13:22.876Z,33.93
2018-11-02T00:15:49.776Z,39.17
2018-11-02T00:18:16.689Z,36.43
2018-11-02T00:20:44.201Z,34.03
2018-11-02T00:23:11.242Z,40.63
2018-11-02T00:25:38.181Z,41.67
2018-11-02T00:28:05.154Z,37.80
2018-11-02T00:30:32.132Z,40.00
2018-11-02T00:33:00.133Z,39.23
2018-11-02T00:35:27.036Z,36.03
2018-11-02T00:37:53.952Z,35.03
2018-11-02T00:40:20.861Z,35.07
2018-11-02T00:42:47.778Z,34.47
2018-11-02T00:45:14.708Z,35.67
2018-11-02T00:47:41.664Z,35.30
2018-11-02T00:50:09.840Z,35.07
2018-11-02T00:52:36.792Z,37.90
2018-11-02T00:55:04.073Z,40.27
2018-11-02T00:57:31.001Z,37.60
2018-11-02T00:59:58.116Z,38.67
2018-11-02T01:02:25.016Z,36.03
2018-11-02T01:04:52.010Z,36.67
2018-11-02T01:07:18.918Z,39.97
2018-11-02T01:09:45.829Z,40.00
2018-11-02T01:12:12.778Z,40.63
2018-11-02T01:14:39.688Z,39.57
2018-11-02T01:17:06.610Z,43.10
2018-11-02T01:19:34.219Z,46.23
2018-11-02T01:22:07.912Z,41.93
2018-11-02T01:24:34.825Z,43.57
2018-11-02T01:27:02.624Z,39.50
2018-11-02T01:29:29.588Z,40.73
2018-11-02T01:31:56.889Z,38.30
2018-11-02T01:34:23.847Z,40.20
2018-11-02T01:36:50.778Z,38.67
2018-11-02T01:39:18.782Z,44.23
2018-11-02T01:41:45.721Z,40.10
2018-11-02T01:44:12.672Z,40.87
2018-11-02T01:46:39.573Z,40.03
2018-11-02T01:49:06.797Z,41.57
2018-11-02T01:51:33.716Z,41.10
2018-11-02T01:54:00.651Z,42.23
2018-11-02T01:56:27.601Z,41.63
2018-11-02T01:58:54.558Z,43.30
2018-11-02T02:01:21.468Z,39.43
2018-11-02T02:03:48.397Z,38.33
2018-11-02T02:06:15.305Z,38.10
2018-11-02T02:08:42.234Z,39.23
2018-11-02T02:11:09.166Z,37.87
2018-11-02T02:13:36.080Z,34.27
2018-11-02T02:16:02.989Z,34.17
2018-11-02T02:18:30.013Z,34.17
2018-11-02T02:20:57.208Z,33.87
2018-11-02T02:23:24.122Z,29.47
2018-11-02T02:25:51.037Z,29.40
2018-11-02T02:28:17.973Z,27.47
2018-11-02T02:30:44.888Z,28.17
2018-11-02T02:33:11.802Z,29.23
2018-11-02T02:35:38.713Z,28.17
2018-11-02T02:38:05.660Z,28.90
2018-11-02T02:40:32.546Z,27.60
2018-11-02T02:42:59.469Z,28.17
2018-11-02T02:45:26.356Z,27.07
2018-11-02T02:47:53.264Z,27.33
2018-11-02T02:50:20.168Z,27.40
2018-11-02T02:52:47.077Z,26.80
2018-11-02T02:55:14.001Z,25.00
2018-11-02T02:57:40.919Z,23.17
2018-11-02T03:00:09.608Z,24.63
2018-11-02T03:02:36.513Z,23.37
2018-11-02T03:05:03.452Z,23.87
2018-11-02T03:07:30.394Z,22.73
2018-11-02T03:09:57.321Z,22.80
2018-11-02T03:12:24.216Z,23.03
2018-11-02T03:14:51.150Z,22.80
2018-11-02T03:17:18.061Z,21.90
2018-11-02T03:19:45.013Z,22.27
2018-11-02T03:22:11.910Z,22.57
2018-11-02T03:24:38.825Z,21.90
2018-11-02T03:27:05.753Z,19.57
2018-11-02T03:29:32.664Z,20.33
2018-11-02T03:31:59.600Z,20.77
2018-11-02T03:34:26.504Z,20.43
2018-11-02T03:36:53.432Z,20.13
2018-11-02T03:39:20.342Z,19.13
2018-11-02T03:41:47.257Z,18.70
2018-11-02T03:44:14.192Z,18.67
2018-11-02T03:46:41.126Z,19.50
2018-11-02T03:49:08.332Z,18.27
2018-11-02T03:51:35.335Z,19.97
2018-11-02T03:54:02.281Z,17.87
2018-11-02T03:56:30.235Z,18.70
2018-11-02T03:58:57.121Z,16.57
2018-11-02T04:01:24.012Z,17.23
2018-11-02T04:03:50.929Z,17.73
2018-11-02T04:06:17.847Z,16.97
2018-11-02T04:08:44.756Z,17.07
2018-11-02T04:11:11.730Z,16.97
2018-11-02T04:13:38.633Z,17.17
2018-11-02T04:16:05.572Z,16.77
2018-11-02T04:18:32.501Z,15.93
2018-11-02T04:20:59.416Z,16.23
2018-11-02T04:23:26.402Z,16.20
2018-11-02T04:25:53.267Z,15.83
2018-11-02T04:28:20.164Z,15.73
2018-11-02T04:30:47.270Z,15.00
2018-11-02T04:33:14.000Z,16.47
2018-11-02T04:35:40.916Z,15.33
2018-11-02T04:38:07.847Z,14.77
2018-11-02T04:40:34.765Z,15.20
2018-11-02T04:43:01.732Z,15.33
2018-11-02T04:45:34.396Z,15.13
2018-11-02T04:48:01.504Z,15.23
2018-11-02T04:50:28.445Z,15.50
2018-11-02T04:52:55.352Z,15.60
2018-11-02T04:55:22.265Z,14.57
2018-11-02T04:57:49.172Z,15.40
2018-11-02T05:00:16.097Z,15.07
2018-11-02T05:02:43.078Z,14.20
2018-11-02T05:05:09.993Z,15.50
2018-11-02T05:07:36.925Z,15.70
2018-11-02T05:10:05.131Z,14.93
2018-11-02T05:12:32.057Z,14.37
2018-11-02T05:14:58.972Z,14.00
2018-11-02T05:17:25.918Z,14.13
2018-11-02T05:19:52.830Z,15.10
2018-11-02T05:22:19.754Z,16.30
2018-11-02T05:24:46.679Z,15.67
2018-11-02T05:27:13.609Z,15.13
2018-11-02T05:29:40.525Z,16.67
2018-11-02T05:32:07.693Z,14.60
2018-11-02T05:34:34.611Z,15.27
2018-11-02T05:37:01.537Z,15.20
2018-11-02T05:39:28.454Z,15.70
2018-11-02T05:41:55.393Z,16.80
2018-11-02T05:44:22.302Z,15.87
2018-11-02T05:46:49.221Z,15.37
2018-11-02T05:49:16.189Z,14.53
2018-11-02T05:51:43.113Z,14.83
2018-11-02T05:54:10.104Z,14.30
2018-11-02T05:56:36.978Z,14.17
2018-11-02T05:59:03.909Z,15.30
2018-11-02T06:01:30.879Z,13.93
2018-11-02T06:03:57.752Z,14.27
2018-11-02T06:06:24.661Z,14.30
2018-11-02T06:08:51.593Z,13.23
2018-11-02T06:11:18.512Z,14.43
2018-11-02T06:13:45.452Z,15.37
2018-11-02T06:16:12.353Z,15.43
2018-11-02T06:18:39.258Z,15.37
2018-11-02T06:21:06.165Z,16.27
2018-11-02T06:23:33.134Z,16.43
2018-11-02T06:26:00.042Z,16.97
2018-11-02T06:31:00.746Z,16.00
2018-11-02T06:33:27.653Z,15.80
2018-11-02T06:35:54.586Z,14.67
2018-11-02T06:38:21.550Z,14.93
2018-11-02T06:40:48.465Z,15.60
2018-11-02T06:43:15.397Z,14.83
2018-11-02T06:45:42.303Z,15.10
2018-11-02T06:48:09.221Z,14.70
2018-11-02T06:50:36.146Z,15.50
2018-11-02T06:53:03.350Z,14.73
2018-11-02T06:55:30.288Z,15.00
2018-11-02T06:57:57.218Z,13.27
2018-11-02T07:00:24.205Z,13.90
2018-11-02T07:02:51.091Z,13.10
2018-11-02T07:05:18.017Z,13.83
2018-11-02T07:07:45.029Z,13.70
2018-11-02T07:10:11.904Z,13.60
2018-11-02T07:12:38.785Z,12.07
2018-11-02T07:15:05.838Z,12.77
2018-11-02T07:17:32.797Z,12.63
2018-11-02T07:19:59.724Z,14.00
2018-11-02T07:22:26.652Z,12.67
2018-11-02T07:25:00.504Z,12.37
2018-11-02T07:27:27.601Z,12.60
2018-11-02T07:29:54.516Z,12.00
2018-11-02T07:32:21.445Z,13.30
2018-11-02T07:34:48.372Z,12.17
2018-11-02T07:37:15.309Z,12.73
2018-11-02T07:39:42.234Z,13.77
2018-11-02T07:42:09.169Z,13.80
2018-11-02T07:44:36.117Z,13.00
2018-11-02T07:47:03.028Z,12.67
2018-11-02T07:49:30.011Z,12.40
2018-11-02T07:51:56.872Z,12.30
2018-11-02T07:54:24.025Z,12.53
2018-11-02T07:56:50.933Z,13.20
2018-11-02T07:59:17.851Z,11.47
2018-11-02T08:01:45.303Z,11.43
2018-11-02T08:04:12.318Z,12.10
2018-11-02T08:06:39.242Z,11.67
2018-11-02T08:09:08.052Z,12.63
2018-11-02T08:11:35.052Z,11.80
2018-11-02T08:14:01.975Z,12.13
2018-11-02T08:16:28.914Z,12.33
2018-11-02T08:18:55.871Z,12.13
2018-11-02T08:21:22.723Z,12.73
2018-11-02T08:23:49.646Z,11.57
2018-11-02T08:26:16.557Z,12.07
2018-11-02T08:28:43.482Z,12.33
2018-11-02T08:31:10.389Z,11.13
2018-11-02T08:33:37.281Z,12.33
2018-11-02T08:36:04.288Z,11.03
2018-11-02T08:38:31.176Z,11.93
2018-11-02T08:40:58.152Z,11.87
2018-11-02T08:43:25.051Z,11.30
2018-11-02T08:45:51.949Z,11.83
2018-11-02T08:48:18.865Z,11.70
2018-11-02T08:50:45.770Z,12.87
2018-11-02T08:53:12.689Z,12.90
2018-11-02T08:55:39.597Z,13.63
2018-11-02T08:58:06.742Z,13.47
2018-11-02T09:00:33.407Z,14.30
2018-11-02T09:03:00.337Z,14.60
2018-11-02T09:05:27.237Z,15.97
2018-11-02T09:07:54.175Z,15.60
2018-11-02T09:10:21.086Z,15.73
2018-11-02T09:12:48.001Z,16.37
2018-11-02T09:15:14.932Z,15.83
2018-11-02T09:17:41.830Z,16.60
2018-11-02T09:20:08.778Z,16.37
2018-11-02T09:22:35.769Z,15.67
2018-11-02T09:25:02.697Z,15.87
2018-11-02T09:27:29.696Z,15.67
2018-11-02T09:29:56.621Z,16.70
2018-11-02T09:32:23.529Z,16.10
2018-11-02T09:34:50.450Z,15.10
2018-11-02T09:37:17.366Z,13.70
2018-11-02T09:39:44.273Z,13.03
2018-11-02T09:42:11.205Z,13.13
2018-11-02T09:44:38.146Z,12.43
2018-11-02T09:47:05.136Z,14.63
2018-11-02T09:49:32.073Z,13.53
2018-11-02T09:51:59.082Z,12.13
2018-11-02T09:54:25.916Z,11.20
2018-11-02T09:56:52.822Z,11.87
2018-11-02T09:59:19.774Z,13.07
2018-11-02T10:01:46.688Z,11.47
2018-11-02T10:04:13.614Z,8.47
2018-11-02T10:06:40.538Z,9.77
2018-11-02T10:09:09.350Z,8.67
2018-11-02T10:11:36.859Z,10.00
2018-11-02T10:14:04.002Z,11.47
2018-11-02T10:16:31.107Z,10.63
2018-11-02T10:18:58.098Z,8.13
2018-11-02T10:21:25.034Z,9.23
2018-11-02T10:23:51.983Z,11.43
2018-11-02T10:26:18.888Z,8.90
2018-11-02T10:28:45.849Z,10.57
2018-11-02T10:31:12.782Z,10.17
2018-11-02T10:33:39.721Z,12.63
2018-11-02T10:36:06.739Z,11.47
2018-11-02T10:38:33.929Z,7.50
2018-11-02T10:41:00.985Z,8.00
2018-11-02T10:43:31.262Z,8.80
2018-11-02T10:45:59.423Z,12.40
2018-11-02T10:48:27.602Z,10.97
2018-11-02T10:50:54.570Z,9.87
2018-11-02T10:53:21.510Z,11.50
2018-11-02T10:55:48.447Z,9.77
2018-11-02T10:58:15.361Z,7.40
2018-11-02T11:00:48.285Z,6.97
2018-11-02T11:03:15.127Z,9.83
2018-11-02T11:05:42.191Z,9.10
2018-11-02T11:08:09.145Z,7.67
2018-11-02T11:10:36.077Z,10.63
2018-11-02T11:13:03.292Z,10.97
2018-11-02T11:15:30.709Z,8.00
2018-11-02T11:17:57.633Z,7.50
2018-11-02T11:20:24.602Z,9.20
2018-11-02T11:22:51.519Z,8.53
2018-11-02T11:25:18.465Z,13.53
2018-11-02T11:27:45.406Z,6.80
2018-11-02T11:30:18.411Z,8.63
2018-11-02T11:32:46.021Z,7.50
2018-11-02T11:35:14.853Z,8.27
2018-11-02T11:37:42.293Z,6.77
2018-11-02T11:40:12.093Z,9.63
2018-11-02T11:42:39.259Z,7.80
2018-11-02T11:45:07.869Z,5.40
2018-11-02T11:47:35.560Z,6.23
2018-11-02T11:50:03.190Z,5.70
2018-11-02T11:52:31.731Z,8.50
2018-11-02T11:54:59.171Z,7.83
2018-11-02T11:57:26.104Z,7.53
2018-11-02T11:59:53.009Z,5.50
2018-11-02T12:02:20.044Z,7.40
2018-11-02T12:04:46.962Z,6.30
2018-11-02T12:07:13.854Z,8.10
2018-11-02T12:09:40.766Z,5.73
2018-11-02T12:12:07.697Z,7.27
2018-11-02T12:14:34.610Z,6.77
2018-11-02T12:17:01.525Z,5.10
2018-11-02T12:19:28.450Z,4.10
2018-11-02T12:21:55.353Z,7.67
2018-11-02T12:24:22.284Z,6.17
2018-11-02T12:26:49.221Z,5.50
2018-11-02T12:29:16.171Z,5.30
2018-11-02T12:31:44.992Z,6.10
2018-11-02T12:34:11.959Z,6.60
2018-11-02T12:36:38.861Z,4.70
2018-11-02T12:39:06.825Z,10.67
2018-11-02T12:41:33.742Z,9.17
2018-11-02T12:44:00.699Z,7.20
2018-11-02T12:46:27.590Z,5.67
2018-11-02T12:48:54.888Z,7.23
2018-11-02T12:51:21.462Z,6.13
2018-11-02T12:53:48.461Z,7.33
2018-11-02T12:56:15.300Z,7.10
2018-11-02T12:58:42.218Z,5.80
2018-11-02T13:01:09.153Z,10.53
2018-11-02T13:03:36.085Z,8.83
2018-11-02T13:06:03.201Z,11.87
2018-11-02T13:08:30.105Z,8.40
2018-11-02T13:10:57.037Z,7.27
2018-11-02T13:13:23.943Z,10.27
2018-11-02T13:15:50.996Z,8.37
2018-11-02T13:18:19.234Z,8.60
2018-11-02T13:20:46.301Z,6.87
2018-11-02T13:23:13.221Z,5.87
2018-11-02T13:25:40.179Z,5.07
2018-11-02T13:28:07.060Z,9.53
2018-11-02T13:30:34.068Z,7.83
2018-11-02T13:33:00.883Z,5.67
2018-11-02T13:35:27.800Z,4.33
2018-11-02T13:37:54.706Z,6.03
2018-11-02T13:40:21.607Z,4.47
2018-11-02T13:42:48.568Z,8.83
2018-11-02T13:45:16.669Z,5.20
2018-11-02T13:47:43.913Z,8.20
2018-11-02T13:50:11.345Z,5.07
2018-11-02T13:52:38.313Z,6.77
2018-11-02T13:55:06.340Z,7.07
2018-11-02T13:57:33.259Z,8.67
2018-11-02T14:00:00.247Z,6.53
2018-11-02T14:02:27.081Z,3.80
2018-11-02T14:04:53.993Z,4.03
2018-11-02T14:07:20.917Z,3.83
2018-11-02T14:09:47.857Z,4.47
2018-11-02T14:12:14.889Z,4.77
2018-11-02T14:14:41.809Z,5.23
2018-11-02T14:17:08.750Z,6.43
2018-11-02T14:19:35.657Z,6.07
2018-11-02T14:22:02.597Z,5.90
2018-11-02T14:24:29.497Z,5.90
2018-11-02T14:26:56.416Z,6.23
2018-11-02T14:29:30.276Z,6.53
2018-11-02T14:31:57.161Z,6.40
2018-11-02T14:36:57.827Z,5.23
2018-11-02T14:39:24.728Z,4.33
2018-11-02T14:41:51.640Z,3.50
2018-11-02T14:44:18.544Z,5.17
2018-11-02T14:46:45.607Z,7.63
2018-11-02T14:49:13.002Z,4.93
2018-11-02T14:51:39.929Z,6.30
2018-11-02T14:54:06.834Z,6.40
2018-11-02T14:56:33.759Z,7.43
2018-11-02T14:59:00.680Z,9.63
2018-11-02T15:01:28.297Z,6.00
2018-11-02T15:03:55.237Z,6.07
2018-11-02T15:06:22.142Z,7.10
2018-11-02T15:08:49.067Z,6.47
2018-11-02T15:11:16.033Z,7.90
2018-11-02T15:13:42.938Z,7.03
2018-11-02T15:16:09.849Z,5.13
2018-11-02T15:18:36.789Z,5.50
2018-11-02T15:21:04.433Z,6.20
2018-11-02T15:23:31.358Z,9.60
2018-11-02T15:25:58.285Z,4.80
2018-11-02T15:28:25.206Z,6.10
2018-11-02T15:30:52.133Z,7.80
2018-11-02T15:33:19.065Z,8.70
2018-11-02T15:35:46.013Z,6.10
2018-11-02T15:38:12.952Z,6.90
2018-11-02T15:40:39.861Z,6.73
2018-11-02T15:43:06.810Z,8.87
2018-11-02T15:45:33.720Z,4.87
2018-11-02T15:48:00.644Z,6.33
2018-11-02T15:50:27.558Z,6.77
2018-11-02T15:52:54.488Z,4.93
2018-11-02T15:55:21.425Z,7.07
2018-11-02T15:57:48.381Z,5.50
2018-11-02T16:00:17.517Z,5.20
2018-11-02T16:02:45.722Z,7.10
2018-11-02T16:05:12.650Z,5.47
2018-11-02T16:07:39.953Z,5.30
2018-11-02T16:10:08.298Z,6.73
2018-11-02T16:12:35.215Z,6.63
2018-11-02T16:15:02.381Z,7.80
2018-11-02T16:17:29.297Z,7.83
2018-11-02T16:19:56.286Z,7.23
2018-11-02T16:22:23.125Z,8.17
2018-11-02T16:24:50.039Z,5.63
2018-11-02T16:27:16.965Z,6.57
2018-11-02T16:29:43.883Z,7.50
2018-11-02T16:32:10.795Z,8.07
2018-11-02T16:34:37.717Z,7.13
2018-11-02T16:37:04.871Z,7.80
2018-11-02T16:39:31.785Z,5.63
2018-11-02T16:41:58.696Z,7.37
2018-11-02T16:44:25.678Z,7.43
2018-11-02T16:46:52.520Z,7.67
2018-11-02T16:49:19.423Z,4.73
2018-11-02T16:51:46.350Z,8.50
2018-11-02T16:54:13.250Z,6.50
2018-11-02T16:56:40.333Z,7.97
2018-11-02T16:59:07.172Z,9.37
2018-11-02T17:01:34.095Z,12.80
2018-11-02T17:04:01.011Z,8.33
2018-11-02T17:06:27.921Z,6.57
2018-11-02T17:08:54.837Z,9.20
2018-11-02T17:11:21.806Z,7.40
2018-11-02T17:13:48.657Z,9.20
2018-11-02T17:16:15.595Z,9.73
2018-11-02T17:18:42.502Z,6.87
2018-11-02T17:21:09.426Z,9.63
2018-11-02T17:23:36.333Z,9.47
2018-11-02T17:26:03.674Z,9.03
2018-11-02T17:28:30.575Z,13.93
2018-11-02T17:30:57.501Z,13.00
2018-11-02T17:33:24.409Z,8.07
2018-11-02T17:35:51.322Z,12.87
2018-11-02T17:38:18.236Z,9.27
2018-11-02T17:40:45.178Z,22.97
2018-11-02T17:43:12.088Z,14.43
2018-11-02T17:45:38.989Z,9.00
2018-11-02T17:48:05.907Z,6.60
2018-11-02T17:50:32.862Z,8.57
2018-11-02T17:52:59.777Z,6.37
2018-11-02T17:55:26.683Z,8.00
2018-11-02T17:57:53.613Z,5.87
2018-11-02T18:00:20.533Z,7.23
2018-11-02T18:02:47.441Z,7.70
2018-11-02T18:05:14.340Z,8.23
2018-11-02T18:07:41.262Z,6.30
2018-11-02T18:10:09.947Z,5.13
2018-11-02T18:12:36.934Z,5.73
2018-11-02T18:15:04.240Z,8.67
2018-11-02T18:17:31.153Z,7.17
2018-11-02T18:19:58.110Z,7.43
2018-11-02T18:22:25.222Z,8.00
2018-11-02T18:24:51.966Z,8.10
2018-11-02T18:27:18.918Z,8.40
2018-11-02T18:29:45.846Z,8.30
2018-11-02T18:32:12.766Z,6.63
2018-11-02T18:34:39.705Z,11.17
2018-11-02T18:37:06.662Z,9.93
2018-11-02T18:39:33.621Z,8.80
2018-11-02T18:42:00.553Z,5.50
2018-11-02T18:44:27.491Z,8.07
2018-11-02T18:46:54.408Z,6.63
2018-11-02T18:49:21.357Z,6.27
2018-11-02T18:51:48.281Z,9.90
2018-11-02T18:54:15.197Z,8.00
2018-11-02T18:56:42.126Z,7.60
2018-11-02T18:59:09.529Z,7.10
2018-11-02T19:01:36.463Z,8.37
2018-11-02T19:04:03.455Z,8.53
2018-11-02T19:06:30.380Z,10.30
2018-11-02T19:08:57.343Z,8.20
2018-11-02T19:11:24.276Z,7.13
2018-11-02T19:13:51.992Z,8.00
2018-11-02T19:16:18.945Z,11.23
2018-11-02T19:18:45.889Z,9.80
2018-11-02T19:21:13.334Z,6.60
2018-11-02T19:23:40.263Z,11.53
2018-11-02T19:26:07.247Z,8.73
2018-11-02T19:28:34.273Z,10.67
2018-11-02T19:31:01.207Z,12.00
2018-11-02T19:33:28.129Z,10.00
2018-11-02T19:35:55.072Z,6.90
2018-11-02T19:38:22.067Z,9.33
2018-11-02T19:40:48.993Z,7.33
2018-11-02T19:43:15.917Z,10.87
2018-11-02T19:45:42.878Z,7.83
2018-11-02T19:48:09.821Z,6.80
2018-11-02T19:50:36.803Z,6.37
2018-11-02T19:53:03.806Z,7.43
2018-11-02T19:55:30.795Z,6.67
2018-11-02T19:57:57.693Z,7.27
2018-11-02T20:00:24.651Z,6.40
2018-11-02T20:02:51.581Z,5.93
2018-11-02T20:05:19.399Z,7.97
2018-11-02T20:07:46.331Z,9.73
2018-11-02T20:10:14.087Z,6.83
2018-11-02T20:12:41.437Z,10.27
2018-11-02T20:15:09.012Z,9.63
2018-11-02T20:17:36.328Z,11.60
2018-11-02T20:20:03.469Z,7.03
2018-11-02T20:22:30.405Z,10.37
2018-11-02T20:24:57.338Z,7.37
2018-11-02T20:27:24.285Z,5.50
2018-11-02T20:29:51.200Z,6.17
2018-11-02T20:32:18.185Z,6.80
2018-11-02T20:34:45.081Z,7.20
2018-11-02T20:37:12.018Z,10.63
2018-11-02T20:39:38.963Z,7.97
2018-11-02T20:42:06.345Z,8.27
2018-11-02T20:44:33.281Z,7.37
2018-11-02T20:47:00.248Z,5.63
2018-11-02T20:49:27.205Z,10.60
2018-11-02T20:51:54.129Z,5.87
2018-11-02T20:54:21.091Z,9.83
2018-11-02T20:56:48.065Z,4.70
2018-11-02T20:59:14.998Z,7.97
2018-11-02T21:01:41.926Z,8.47
2018-11-02T21:04:08.846Z,8.40
2018-11-02T21:06:35.787Z,7.77
2018-11-02T21:09:03.165Z,7.40
2018-11-02T21:11:29.844Z,8.60
2018-11-02T21:13:56.803Z,8.07
2018-11-02T21:16:23.798Z,8.90
2018-11-02T21:18:50.712Z,5.70
2018-11-02T21:21:17.687Z,7.37
2018-11-02T21:23:44.591Z,6.23
2018-11-02T21:26:11.498Z,8.57
2018-11-02T21:28:38.457Z,6.53
2018-11-02T21:31:05.374Z,6.00
2018-11-02T21:33:32.370Z,6.23
2018-11-02T21:35:59.245Z,7.33
2018-11-02T21:38:27.005Z,6.60
2018-11-02T21:40:53.906Z,8.50
2018-11-02T21:43:20.834Z,10.13
2018-11-02T21:45:47.792Z,9.80
2018-11-02T21:48:14.741Z,12.30
2018-11-02T21:50:41.669Z,12.30
2018-11-02T21:53:08.616Z,6.20
2018-11-02T21:55:35.551Z,9.10
2018-11-02T21:58:02.490Z,8.00
2018-11-02T22:00:29.415Z,9.63
2018-11-02T22:02:56.361Z,9.47
2018-11-02T22:05:23.295Z,9.13
2018-11-02T22:07:50.508Z,10.57
2018-11-02T22:10:17.753Z,9.20
2018-11-02T22:12:44.708Z,8.88
2018-11-02T22:15:11.653Z,7.63
2018-11-02T22:17:45.384Z,9.13
2018-11-02T22:20:13.432Z,7.10
2018-11-02T22:22:40.604Z,8.70
2018-11-02T22:25:08.158Z,8.73
2018-11-02T22:27:35.181Z,6.00
2018-11-02T22:30:02.169Z,6.50
2018-11-02T22:32:29.113Z,10.45
2018-11-02T22:34:56.053Z,9.33
2018-11-02T22:37:22.995Z,11.15
2018-11-02T22:39:49.937Z,8.53
2018-11-02T22:42:16.861Z,5.07
2018-11-02T22:44:43.789Z,7.05
2018-11-02T22:47:10.702Z,6.93
2018-11-02T22:49:37.657Z,9.10
2018-11-02T22:52:04.595Z,11.27
2018-11-02T22:54:31.545Z,6.78
2018-11-02T22:56:58.477Z,5.60
2018-11-02T22:59:25.433Z,7.92
2018-11-02T23:01:52.377Z,6.28
2018-11-02T23:04:19.321Z,8.68
2018-11-02T23:06:46.253Z,7.20
2018-11-02T23:09:13.184Z,8.63
2018-11-02T23:11:40.109Z,10.25
2018-11-02T23:14:07.549Z,8.68
2018-11-02T23:16:34.473Z,7.37
2018-11-02T23:19:01.430Z,8.17
2018-11-02T23:21:28.353Z,8.33
2018-11-02T23:23:55.303Z,9.85
2018-11-02T23:26:22.257Z,8.68
2018-11-02T23:28:49.201Z,6.80
2018-11-02T23:31:16.125Z,9.75
2018-11-02T23:33:43.054Z,8.38
2018-11-02T23:36:09.969Z,7.65
2018-11-02T23:38:36.897Z,8.70
2018-11-02T23:41:04.278Z,6.65
2018-11-02T23:43:31.204Z,8.60
2018-11-02T23:45:58.125Z,9.38
2018-11-02T23:48:25.072Z,7.67
2018-11-02T23:50:52.014Z,7.28
2018-11-02T23:53:19.155Z,8.13
2018-11-02T23:55:46.617Z,6.87
2018-11-02T23:58:13.885Z,9.48
